createdAt,value
2024-04-06T00:02:06.109Z,66.43
2024-04-06T00:04:37.442Z,66.73
2024-04-06T00:07:05.868Z,67.02
2024-04-06T00:09:34.236Z,67.02
2024-04-06T00:12:03.239Z,66.91
2024-04-06T00:14:32.796Z,66.74
2024-04-06T00:17:01.124Z,66.90
2024-04-06T00:19:29.384Z,66.52
2024-04-06T00:21:57.869Z,67.02
2024-04-06T00:24:26.097Z,66.89
2024-04-06T00:26:54.483Z,67.05
2024-04-06T00:29:23.026Z,67.00
2024-04-06T00:31:51.533Z,67.38
2024-04-06T00:34:20.280Z,67.61
2024-04-06T00:36:48.955Z,67.27
2024-04-06T00:39:17.461Z,67.16
2024-04-06T00:41:46.224Z,67.25
2024-04-06T00:44:15.383Z,67.22
2024-04-06T00:46:43.694Z,67.32
2024-04-06T00:49:12.286Z,66.85
2024-04-06T00:51:40.564Z,67.25
2024-04-06T00:54:08.824Z,67.39
2024-04-06T00:56:37.920Z,67.54
2024-04-06T00:59:06.245Z,67.32
2024-04-06T01:01:36.068Z,67.54
2024-04-06T01:04:06.854Z,67.72
2024-04-06T01:06:35.120Z,68.01
2024-04-06T01:09:04.371Z,68.23
2024-04-06T01:11:36.933Z,68.03
2024-04-06T01:14:05.550Z,68.45
2024-04-06T01:16:35.285Z,68.42
2024-04-06T01:19:03.700Z,68.67
2024-04-06T01:21:32.685Z,68.76
2024-04-06T01:24:24.311Z,68.50
2024-04-06T01:26:55.148Z,68.79
2024-04-06T01:29:27.050Z,68.28
2024-04-06T01:31:56.649Z,68.64
2024-04-06T01:34:24.959Z,68.32
2024-04-06T01:36:53.298Z,68.44
2024-04-06T01:39:21.668Z,68.25
2024-04-06T01:41:50.548Z,68.33
2024-04-06T01:44:18.805Z,68.52
2024-04-06T01:46:47.204Z,68.70
2024-04-06T01:49:15.759Z,69.53
2024-04-06T01:51:46.919Z,69.78
2024-04-06T01:54:15.564Z,69.43
2024-04-06T01:56:44.067Z,68.43
2024-04-06T01:59:12.718Z,68.69
2024-04-06T02:01:42.531Z,69.57
2024-04-06T02:04:12.296Z,69.52
2024-04-06T02:06:40.576Z,70.03
2024-04-06T02:09:09.832Z,69.26
2024-04-06T02:11:38.916Z,68.50
2024-04-06T02:14:07.587Z,68.50
2024-04-06T02:16:36.745Z,67.79
2024-04-06T02:19:05.330Z,68.76
2024-04-06T02:21:33.758Z,68.53
2024-04-06T02:24:02.292Z,69.03
2024-04-06T02:26:30.779Z,69.15
2024-04-06T02:28:59.209Z,69.03
2024-04-06T02:31:28.456Z,68.87
2024-04-06T02:33:57.120Z,69.04
2024-04-06T02:36:25.441Z,68.55
2024-04-06T02:38:53.938Z,69.10
2024-04-06T02:41:22.180Z,69.04
2024-04-06T02:43:51.345Z,68.82
2024-04-06T02:46:19.541Z,68.78
2024-04-06T02:48:49.015Z,68.58
2024-04-06T02:51:17.637Z,68.62
2024-04-06T02:53:45.782Z,68.56
2024-04-06T02:56:14.106Z,67.94
2024-04-06T02:58:42.013Z,68.42
2024-04-06T03:01:10.279Z,68.64
2024-04-06T03:03:38.783Z,69.50
2024-04-06T03:06:07.496Z,68.81
2024-04-06T03:08:35.699Z,68.76
2024-04-06T03:11:04.072Z,68.43
2024-04-06T03:13:32.177Z,68.92
2024-04-06T03:16:00.630Z,68.59
2024-04-06T03:18:28.936Z,68.71
2024-04-06T03:20:57.298Z,68.78
2024-04-06T03:23:25.722Z,68.59
2024-04-06T03:25:53.939Z,68.41
2024-04-06T03:28:23.131Z,68.50
2024-04-06T03:30:51.255Z,68.19
2024-04-06T03:33:19.517Z,67.89
2024-04-06T03:35:47.996Z,67.97
2024-04-06T03:38:16.289Z,67.95
2024-04-06T03:40:44.560Z,67.76
2024-04-06T03:43:12.878Z,67.67
2024-04-06T03:45:41.741Z,67.73
2024-04-06T03:48:09.799Z,67.53
2024-04-06T03:50:41.182Z,67.95
2024-04-06T03:53:11.478Z,67.75
2024-04-06T03:55:39.841Z,67.87
2024-04-06T03:58:08.404Z,67.81
2024-04-06T04:00:37.382Z,68.10
2024-04-06T04:03:05.796Z,67.90
2024-04-06T04:05:34.680Z,67.68
2024-04-06T04:08:03.054Z,67.99
2024-04-06T04:10:33.471Z,68.20
2024-04-06T04:13:02.241Z,68.85
2024-04-06T04:15:31.035Z,68.81
2024-04-06T04:17:59.938Z,68.10
2024-04-06T04:20:28.956Z,68.25
2024-04-06T04:22:57.522Z,68.26
2024-04-06T04:25:26.072Z,68.32
2024-04-06T04:27:58.898Z,67.66
2024-04-06T04:30:29.320Z,68.43
2024-04-06T04:32:58.096Z,67.93
2024-04-06T04:35:27.581Z,68.25
2024-04-06T04:37:56.489Z,68.25
2024-04-06T04:40:25.765Z,68.46
2024-04-06T04:42:54.463Z,68.57
2024-04-06T04:45:23.529Z,68.44
2024-04-06T04:47:52.021Z,68.27
2024-04-06T04:50:20.711Z,68.36
2024-04-06T04:52:49.325Z,68.09
2024-04-06T04:55:18.082Z,67.76
2024-04-06T04:57:47.205Z,67.31
2024-04-06T05:00:15.502Z,67.43
2024-04-06T05:02:43.857Z,67.66
2024-04-06T05:05:12.904Z,67.61
2024-04-06T05:07:42.408Z,67.83
2024-04-06T05:10:11.232Z,68.26
2024-04-06T05:12:39.990Z,68.00
2024-04-06T05:15:08.897Z,67.76
2024-04-06T05:17:38.904Z,67.68
2024-04-06T05:20:07.616Z,67.72
2024-04-06T05:22:36.506Z,67.78
2024-04-06T05:25:07.028Z,67.67
2024-04-06T05:27:37.808Z,67.64
2024-04-06T05:30:08.086Z,67.74
2024-04-06T05:32:36.844Z,67.68
2024-04-06T05:35:07.391Z,67.80
2024-04-06T05:37:35.797Z,67.91
2024-04-06T05:40:04.981Z,67.33
2024-04-06T05:42:33.425Z,67.75
2024-04-06T05:45:02.245Z,67.23
2024-04-06T05:47:32.175Z,66.34
2024-04-06T05:50:00.643Z,65.27
2024-04-06T05:52:29.648Z,64.41
2024-04-06T05:55:00.727Z,63.19
2024-04-06T05:57:29.813Z,61.62
2024-04-06T05:59:58.328Z,60.83
2024-04-06T06:02:26.899Z,60.84
2024-04-06T06:04:55.196Z,59.49
2024-04-06T06:07:23.387Z,59.92
2024-04-06T06:09:51.879Z,57.89
2024-04-06T06:12:20.755Z,55.69
2024-04-06T06:14:49.163Z,52.83
2024-04-06T06:17:20.708Z,53.78
2024-04-06T06:19:49.502Z,51.22
2024-04-06T06:22:18.002Z,53.93
2024-04-06T06:24:46.316Z,50.50
2024-04-06T06:27:14.579Z,47.41
2024-04-06T06:29:42.892Z,50.72
2024-04-06T06:32:11.452Z,52.42
2024-04-06T06:34:40.745Z,50.96
2024-04-06T06:42:13.095Z,46.20
2024-04-06T06:44:41.539Z,44.42
2024-04-06T06:47:10.448Z,44.94
2024-04-06T06:49:39.851Z,43.89
2024-04-06T06:52:08.597Z,40.76
2024-04-06T06:54:37.233Z,41.07
2024-04-06T06:57:06.087Z,41.87
2024-04-06T07:02:06.914Z,41.88
2024-04-06T07:04:37.561Z,42.26
2024-04-06T07:07:08.291Z,44.36
2024-04-06T07:09:37.182Z,45.90
2024-04-06T07:12:08.942Z,46.45
2024-04-06T07:14:37.624Z,46.84
2024-04-06T07:17:06.090Z,46.53
2024-04-06T07:19:34.912Z,47.31
2024-04-06T07:22:03.966Z,48.22
2024-04-06T07:24:34.310Z,48.34
2024-04-06T07:27:03.238Z,48.68
2024-04-06T07:29:32.085Z,48.68
2024-04-06T07:32:04.048Z,49.14
2024-04-06T07:34:32.423Z,49.02
2024-04-06T07:37:00.743Z,49.45
2024-04-06T07:39:29.410Z,48.88
2024-04-06T07:41:57.971Z,48.12
2024-04-06T07:44:26.660Z,48.00
2024-04-06T07:46:55.426Z,47.68
2024-04-06T07:49:24.111Z,48.09
2024-04-06T07:51:52.723Z,48.45
2024-04-06T07:54:21.108Z,48.20
2024-04-06T07:56:49.785Z,48.71
2024-04-06T07:59:18.885Z,48.39
2024-04-06T08:01:49.728Z,49.39
2024-04-06T08:04:18.313Z,49.56
2024-04-06T08:06:47.294Z,49.08
2024-04-06T08:09:15.888Z,48.58
2024-04-06T08:11:44.566Z,49.03
2024-04-06T08:14:20.892Z,49.61
2024-04-06T08:16:53.810Z,50.54
2024-04-06T08:19:23.179Z,50.60
2024-04-06T08:21:52.326Z,51.27
2024-04-06T08:24:21.262Z,51.03
2024-04-06T08:26:50.934Z,50.55
2024-04-06T08:29:19.987Z,50.85
2024-04-06T08:31:48.400Z,50.87
2024-04-06T08:34:17.342Z,51.31
2024-04-06T08:36:46.173Z,52.13
2024-04-06T08:39:15.062Z,52.27
2024-04-06T08:41:46.598Z,52.71
2024-04-06T08:44:19.733Z,52.77
2024-04-06T08:46:50.005Z,52.95
2024-04-06T08:49:18.988Z,52.76
2024-04-06T08:51:50.068Z,52.68
2024-04-06T08:54:18.627Z,53.92
2024-04-06T08:56:47.089Z,52.88
2024-04-06T08:59:15.849Z,52.79
2024-04-06T09:01:45.692Z,52.58
2024-04-06T09:04:14.588Z,52.64
2024-04-06T09:06:45.927Z,53.44
2024-04-06T09:09:14.990Z,52.98
2024-04-06T09:11:45.759Z,52.49
2024-04-06T09:14:15.640Z,53.10
2024-04-06T09:16:45.560Z,53.21
2024-04-06T09:19:14.164Z,53.56
2024-04-06T09:21:42.956Z,53.24
2024-04-06T09:24:13.755Z,54.06
2024-04-06T09:26:42.142Z,53.98
2024-04-06T09:29:10.534Z,54.38
2024-04-06T09:31:48.269Z,54.99
2024-04-06T09:34:16.790Z,55.86
2024-04-06T09:36:48.713Z,56.64
2024-04-06T09:39:18.619Z,57.11
2024-04-06T09:41:47.822Z,59.09
2024-04-06T09:44:16.311Z,62.29
2024-04-06T09:46:46.746Z,64.92
2024-04-06T09:49:15.603Z,67.27
2024-04-06T09:51:44.320Z,69.34
2024-04-06T09:54:13.059Z,70.77
2024-04-06T09:56:42.874Z,72.58
2024-04-06T09:59:25.196Z,74.30
2024-04-06T10:02:00.909Z,75.39
2024-04-06T10:04:36.586Z,76.88
2024-04-06T10:07:06.834Z,77.00
2024-04-06T10:09:38.970Z,79.11
2024-04-06T10:12:09.718Z,76.00
2024-04-06T10:14:47.492Z,76.17
2024-04-06T10:17:18.049Z,77.40
2024-04-06T10:19:47.828Z,78.42
2024-04-06T10:22:26.475Z,77.84
2024-04-06T10:25:04.370Z,78.70
2024-04-06T10:27:39.170Z,78.94
2024-04-06T10:30:09.806Z,78.82
2024-04-06T10:32:39.596Z,79.33
2024-04-06T10:35:08.423Z,80.12
2024-04-06T10:37:37.829Z,81.35
2024-04-06T10:40:07.242Z,80.09
2024-04-06T10:42:42.860Z,79.56
2024-04-06T10:45:13.515Z,80.69
2024-04-06T10:47:42.084Z,80.08
2024-04-06T10:50:11.408Z,78.99
2024-04-06T10:52:44.362Z,79.70
2024-04-06T10:55:21.062Z,80.21
2024-04-06T10:57:49.761Z,79.60
2024-04-06T11:00:19.502Z,78.99
2024-04-06T11:02:48.774Z,79.68
2024-04-06T11:05:20.043Z,77.83
2024-04-06T11:07:48.650Z,78.40
2024-04-06T11:10:17.644Z,76.84
2024-04-06T11:12:46.533Z,77.49
2024-04-06T11:15:16.441Z,78.24
2024-04-06T11:17:44.930Z,77.76
2024-04-06T11:20:14.349Z,78.98
2024-04-06T11:22:44.219Z,79.27
2024-04-06T11:25:17.547Z,78.04
2024-04-06T11:27:53.100Z,78.69
2024-04-06T11:30:22.227Z,79.26
2024-04-06T11:32:52.201Z,78.54
2024-04-06T11:35:20.720Z,79.13
2024-04-06T11:37:49.607Z,79.11
2024-04-06T11:40:19.729Z,78.28
2024-04-06T11:42:49.010Z,77.46
2024-04-06T11:45:18.023Z,78.04
2024-04-06T11:47:48.607Z,77.98
2024-04-06T11:50:19.356Z,77.80
2024-04-06T11:52:48.112Z,76.85
2024-04-06T11:55:16.434Z,76.36
2024-04-06T11:57:45.969Z,77.11
2024-04-06T12:00:18.041Z,77.13
2024-04-06T12:02:47.386Z,77.37
2024-04-06T12:05:16.242Z,75.21
2024-04-06T12:07:45.153Z,75.64
2024-04-06T12:10:14.020Z,75.41
2024-04-06T12:12:43.788Z,75.81
2024-04-06T12:15:14.212Z,76.36
2024-04-06T12:17:43.365Z,74.77
2024-04-06T12:20:13.652Z,75.17
2024-04-06T12:22:42.084Z,74.20
2024-04-06T12:25:10.983Z,73.97
2024-04-06T12:27:43.653Z,73.80
2024-04-06T12:30:16.135Z,73.04
2024-04-06T12:32:45.466Z,73.20
2024-04-06T12:35:13.815Z,73.47
2024-04-06T12:37:44.884Z,72.06
2024-04-06T12:40:13.072Z,72.23
2024-04-06T12:42:41.339Z,72.31
2024-04-06T12:45:10.244Z,73.28
2024-04-06T12:47:38.543Z,72.92
2024-04-06T12:50:08.205Z,72.47
2024-04-06T12:52:38.551Z,72.02
2024-04-06T12:55:08.018Z,72.18
2024-04-06T12:57:44.084Z,72.74
2024-04-06T13:00:15.401Z,71.83
2024-04-06T13:02:44.766Z,71.88
2024-04-06T13:05:13.337Z,69.78
2024-04-06T13:07:41.960Z,68.27
2024-04-06T13:10:10.332Z,68.92
2024-04-06T13:12:39.686Z,68.14
2024-04-06T13:15:14.721Z,67.79
2024-04-06T13:17:46.928Z,67.42
2024-04-06T13:20:18.361Z,68.59
2024-04-06T13:22:47.588Z,69.37
2024-04-06T13:25:16.413Z,69.17
2024-04-06T13:27:44.997Z,69.93
2024-04-06T13:30:14.242Z,69.22
2024-04-06T13:32:43.022Z,67.77
2024-04-06T13:35:11.533Z,67.52
2024-04-06T13:37:40.479Z,68.60
2024-04-06T13:40:11.801Z,68.64
2024-04-06T13:42:42.137Z,69.04
2024-04-06T13:45:17.294Z,69.25
2024-04-06T13:47:46.434Z,70.03
2024-04-06T13:50:15.294Z,70.09
2024-04-06T13:52:43.856Z,69.48
2024-04-06T13:55:13.040Z,69.21
2024-04-06T13:57:47.370Z,69.63
2024-04-06T14:00:17.822Z,69.06
2024-04-06T14:02:46.358Z,69.40
2024-04-06T14:05:14.697Z,69.56
2024-04-06T14:07:44.271Z,70.38
2024-04-06T14:10:13.505Z,71.46
2024-04-06T14:12:42.293Z,71.86
2024-04-06T14:15:11.368Z,71.60
2024-04-06T14:17:42.944Z,71.89
2024-04-06T14:20:11.729Z,71.61
2024-04-06T14:22:41.179Z,71.81
2024-04-06T14:25:09.942Z,71.56
2024-04-06T14:27:38.877Z,71.41
2024-04-06T14:30:26.340Z,71.72
2024-04-06T14:32:54.461Z,72.24
2024-04-06T14:35:23.277Z,71.57
2024-04-06T14:37:51.726Z,71.76
2024-04-06T14:40:20.105Z,71.12
2024-04-06T14:42:50.204Z,71.13
2024-04-06T14:45:18.863Z,70.57
2024-04-06T14:47:47.569Z,70.60
2024-04-06T14:50:15.882Z,70.76
2024-04-06T14:52:44.068Z,70.74
2024-04-06T14:55:13.183Z,70.49
2024-04-06T14:57:42.662Z,70.21
2024-04-06T15:00:16.976Z,70.73
2024-04-06T15:02:45.669Z,71.22
2024-04-06T15:05:14.550Z,71.22
2024-04-06T15:07:43.330Z,71.71
2024-04-06T15:10:12.552Z,71.87
2024-04-06T15:12:40.820Z,71.83
2024-04-06T15:15:09.465Z,71.97
2024-04-06T15:17:37.873Z,71.98
2024-04-06T15:20:12.290Z,72.59
2024-04-06T15:22:42.358Z,72.50
2024-04-06T15:25:10.692Z,72.54
2024-04-06T15:27:40.378Z,72.66
2024-04-06T15:30:09.599Z,72.51
2024-04-06T15:32:39.644Z,72.48
2024-04-06T15:35:09.585Z,72.31
2024-04-06T15:37:38.623Z,72.48
2024-04-06T15:40:09.290Z,72.39
2024-04-06T15:42:40.794Z,72.52
2024-04-06T15:45:09.332Z,73.49
2024-04-06T15:47:37.817Z,73.21
2024-04-06T15:50:10.502Z,72.99
2024-04-06T15:52:41.330Z,73.10
2024-04-06T15:55:09.780Z,73.04
2024-04-06T15:57:38.300Z,73.48
2024-04-06T16:00:07.826Z,73.60
2024-04-06T16:02:36.326Z,73.77
2024-04-06T16:05:04.906Z,74.47
2024-04-06T16:07:33.695Z,73.96
2024-04-06T16:10:02.159Z,74.20
2024-04-06T16:12:30.488Z,74.78
2024-04-06T16:14:59.077Z,74.58
2024-04-06T16:17:27.171Z,74.68
2024-04-06T16:19:55.832Z,75.23
2024-04-06T16:22:24.538Z,75.43
2024-04-06T16:24:54.912Z,75.37
2024-04-06T16:27:23.539Z,75.71
2024-04-06T16:29:52.018Z,75.02
2024-04-06T16:32:20.583Z,75.53
2024-04-06T16:34:48.631Z,75.68
2024-04-06T16:37:17.052Z,76.19
2024-04-06T16:39:45.772Z,75.39
2024-04-06T16:42:14.571Z,75.66
2024-04-06T16:44:43.373Z,75.33
2024-04-06T16:47:11.632Z,75.30
2024-04-06T16:49:40.313Z,75.68
2024-04-06T16:52:08.842Z,75.27
2024-04-06T16:54:37.705Z,75.86
2024-04-06T16:57:11.534Z,75.85
2024-04-06T16:59:41.337Z,75.95
2024-04-06T17:02:11.585Z,75.88
2024-04-06T17:04:40.059Z,76.55
2024-04-06T17:07:08.538Z,76.00
2024-04-06T17:09:37.166Z,75.81
2024-04-06T17:12:09.968Z,76.24
2024-04-06T17:14:43.348Z,76.20
2024-04-06T17:17:12.288Z,76.24
2024-04-06T17:19:40.460Z,76.14
2024-04-06T17:22:11.685Z,76.34
2024-04-06T17:24:46.493Z,77.34
2024-04-06T17:27:15.801Z,76.88
2024-04-06T17:29:44.252Z,76.83
2024-04-06T17:32:12.736Z,77.22
2024-04-06T17:34:41.006Z,76.29
2024-04-06T17:37:09.898Z,76.61
2024-04-06T17:39:38.754Z,77.17
2024-04-06T17:42:07.889Z,77.85
2024-04-06T17:44:36.433Z,77.76
2024-04-06T17:47:04.908Z,77.90
2024-04-06T17:49:34.199Z,78.06
2024-04-06T17:52:05.395Z,78.00
2024-04-06T17:54:34.957Z,78.20
2024-04-06T17:57:03.383Z,77.97
2024-04-06T17:59:31.797Z,78.21
2024-04-06T18:02:00.033Z,78.59
2024-04-06T18:04:28.637Z,78.11
2024-04-06T18:06:56.954Z,78.50
2024-04-06T18:09:25.571Z,79.07
2024-04-06T18:11:56.968Z,78.98
2024-04-06T18:14:27.851Z,78.13
2024-04-06T18:16:56.152Z,78.73
2024-04-06T18:19:24.410Z,78.53
2024-04-06T18:21:53.598Z,78.76
2024-04-06T18:24:22.026Z,79.02
2024-04-06T18:26:50.950Z,78.85
2024-04-06T18:29:19.353Z,78.67
2024-04-06T18:31:47.926Z,77.90
2024-04-06T18:34:18.697Z,77.52
2024-04-06T18:36:47.257Z,78.36
2024-04-06T18:39:15.831Z,78.31
2024-04-06T18:41:44.479Z,78.91
2024-04-06T18:44:13.026Z,79.03
2024-04-06T18:46:41.614Z,78.41
2024-04-06T18:49:11.025Z,78.99
2024-04-06T18:51:39.577Z,78.29
2024-04-06T18:54:20.304Z,78.27
2024-04-06T18:56:55.707Z,78.27
2024-04-06T18:59:25.137Z,78.39
2024-04-06T19:01:54.148Z,79.19
2024-04-06T19:04:22.785Z,78.36
2024-04-06T19:06:51.759Z,78.19
2024-04-06T19:09:20.973Z,78.16
2024-04-06T19:11:49.544Z,78.66
2024-04-06T19:14:19.139Z,78.25
2024-04-06T19:16:47.418Z,79.51
2024-04-06T19:19:16.222Z,80.45
2024-04-06T19:21:46.376Z,81.86
2024-04-06T19:24:15.100Z,80.81
2024-04-06T19:26:49.886Z,79.72
2024-04-06T19:29:20.298Z,80.12
2024-04-06T19:31:48.421Z,79.32
2024-04-06T19:34:16.551Z,79.58
2024-04-06T19:36:44.728Z,79.74
2024-04-06T19:39:13.101Z,79.69
2024-04-06T19:41:41.342Z,79.50
2024-04-06T19:44:13.697Z,79.25
2024-04-06T19:46:43.837Z,79.65
2024-04-06T19:49:12.794Z,79.13
2024-04-06T19:51:41.286Z,79.40
2024-04-06T19:54:10.175Z,79.20
2024-04-06T19:56:39.755Z,79.05
2024-04-06T19:59:07.879Z,78.67
2024-04-06T20:01:36.396Z,78.77
2024-04-06T20:04:05.248Z,78.97
2024-04-06T20:06:34.113Z,79.70
2024-04-06T20:09:10.884Z,80.27
2024-04-06T20:11:39.469Z,80.26
2024-04-06T20:14:07.857Z,80.81
2024-04-06T20:16:36.014Z,80.21
2024-04-06T20:19:04.311Z,80.57
2024-04-06T20:21:33.865Z,80.41
2024-04-06T20:24:20.540Z,80.26
2024-04-06T20:26:48.640Z,80.11
2024-04-06T20:29:16.976Z,80.22
2024-04-06T20:31:45.395Z,80.46
2024-04-06T20:34:13.566Z,80.29
2024-04-06T20:36:43.822Z,80.48
2024-04-06T20:39:15.272Z,80.21
2024-04-06T20:41:43.375Z,79.71
2024-04-06T20:44:14.085Z,80.05
2024-04-06T20:46:42.318Z,80.43
2024-04-06T20:49:10.693Z,80.09
2024-04-06T20:51:39.554Z,79.87
2024-04-06T20:54:07.812Z,79.79
2024-04-06T20:56:36.004Z,80.82
2024-04-06T20:59:04.280Z,81.54
2024-04-06T21:01:33.182Z,81.15
2024-04-06T21:04:02.640Z,80.99
2024-04-06T21:06:32.771Z,81.23
2024-04-06T21:09:01.245Z,80.87
2024-04-06T21:11:29.784Z,81.48
2024-04-06T21:13:58.223Z,81.66
2024-04-06T21:16:26.738Z,81.17
2024-04-06T21:18:57.096Z,81.19
2024-04-06T21:21:25.849Z,82.07
2024-04-06T21:23:54.298Z,82.12
2024-04-06T21:26:22.300Z,81.29
2024-04-06T21:28:51.025Z,81.38
2024-04-06T21:31:19.463Z,81.28
2024-04-06T21:33:47.910Z,82.31
2024-04-06T21:36:16.474Z,82.27
2024-04-06T21:38:45.008Z,82.68
2024-04-06T21:41:14.170Z,82.36
2024-04-06T21:43:47.118Z,81.92
2024-04-06T21:46:20.029Z,82.03
2024-04-06T21:48:53.569Z,81.77
2024-04-06T21:51:22.043Z,82.11
2024-04-06T21:53:50.280Z,81.43
2024-04-06T21:56:18.761Z,82.13
2024-04-06T21:58:47.445Z,81.82
2024-04-06T22:01:15.828Z,82.34
2024-04-06T22:03:44.648Z,82.03
2024-04-06T22:06:13.112Z,81.49
2024-04-06T22:08:41.510Z,81.57
2024-04-06T22:11:11.583Z,81.67
2024-04-06T22:13:41.363Z,82.00
2024-04-06T22:16:11.098Z,82.54
2024-04-06T22:18:39.618Z,82.70
2024-04-06T22:21:08.275Z,82.11
2024-04-06T22:23:37.329Z,82.22
2024-04-06T22:26:05.643Z,81.33
2024-04-06T22:28:33.929Z,81.61
2024-04-06T22:31:02.405Z,81.24
2024-04-06T22:33:30.831Z,80.98
2024-04-06T22:35:59.207Z,80.70
2024-04-06T22:38:27.929Z,80.26
2024-04-06T22:40:56.769Z,80.06
2024-04-06T22:43:25.195Z,79.67
2024-04-06T22:45:53.798Z,80.32
2024-04-06T22:48:22.324Z,80.51
2024-04-06T22:50:50.951Z,79.61
2024-04-06T22:53:19.579Z,80.45
2024-04-06T22:55:49.184Z,80.16
2024-04-06T22:58:17.547Z,80.42
2024-04-06T23:00:46.129Z,80.53
2024-04-06T23:03:14.886Z,80.48
2024-04-06T23:05:44.183Z,80.41
2024-04-06T23:08:12.720Z,80.30
2024-04-06T23:10:41.069Z,80.10
2024-04-06T23:13:09.466Z,80.29
2024-04-06T23:15:38.313Z,80.45
2024-04-06T23:18:06.792Z,80.21
2024-04-06T23:20:37.463Z,79.79
2024-04-06T23:23:06.019Z,79.82
2024-04-06T23:25:35.212Z,79.48
2024-04-06T23:28:03.726Z,79.80
2024-04-06T23:30:32.318Z,79.62
2024-04-06T23:33:00.993Z,79.50
2024-04-06T23:35:29.767Z,79.14
2024-04-06T23:37:58.218Z,79.04
2024-04-06T23:40:27.429Z,79.01
2024-04-06T23:42:55.941Z,79.16
2024-04-06T23:45:24.569Z,79.04
2024-04-06T23:47:53.001Z,78.92
2024-04-06T23:50:21.257Z,78.80
2024-04-06T23:52:49.578Z,78.94
2024-04-06T23:55:17.953Z,78.69
2024-04-06T23:57:46.589Z,78.53
